createdAt,value
2022-08-18T00:00:39.690Z,19.81
2022-08-18T00:03:57.461Z,19.89
2022-08-18T00:06:35.084Z,19.87
2022-08-18T00:09:20.364Z,19.82
2022-08-18T00:12:12.851Z,19.76
2022-08-18T00:14:58.617Z,19.72
2022-08-18T00:17:43.822Z,19.56
2022-08-18T00:20:29.059Z,19.56
2022-08-18T00:23:14.723Z,19.59
2022-08-18T00:25:59.967Z,19.54
2022-08-18T00:28:45.346Z,19.24
2022-08-18T00:31:30.362Z,19.01
2022-08-18T00:34:15.888Z,18.96
2022-08-18T00:37:01.031Z,19.14
2022-08-18T00:39:47.696Z,19.23
2022-08-18T00:42:33.338Z,19.31
2022-08-18T00:45:34.977Z,19.37
2022-08-18T00:48:23.858Z,19.49
2022-08-18T00:51:15.246Z,19.31
2022-08-18T00:54:11.076Z,19.32
2022-08-18T00:57:01.870Z,19.41
2022-08-18T01:00:05.234Z,19.44
2022-08-18T01:02:58.881Z,19.38
2022-08-18T01:05:50.217Z,19.33
2022-08-18T01:08:35.149Z,19.29
2022-08-18T01:11:20.367Z,19.26
2022-08-18T01:14:08.786Z,19.21
2022-08-18T01:16:57.513Z,19.21
2022-08-18T01:19:43.167Z,19.25
2022-08-18T01:22:45.697Z,19.30
2022-08-18T01:25:31.541Z,19.25
2022-08-18T01:28:17.703Z,19.20
2022-08-18T01:31:04.090Z,19.20
2022-08-18T01:33:49.074Z,19.07
2022-08-18T01:36:36.932Z,19.04
2022-08-18T01:41:24.885Z,19.04
2022-08-18T01:42:27.351Z,19.00
2022-08-18T01:45:15.411Z,19.00
2022-08-18T01:48:00.980Z,18.97
2022-08-18T01:50:46.327Z,18.94
2022-08-18T01:53:31.397Z,18.96
2022-08-18T01:56:16.610Z,18.95
2022-08-18T01:59:01.427Z,19.06
2022-08-18T02:01:53.085Z,18.93
2022-08-18T02:04:38.952Z,18.73
2022-08-18T02:07:23.717Z,18.83
2022-08-18T02:10:19.575Z,18.67
2022-08-18T02:13:05.327Z,18.79
2022-08-18T02:15:51.030Z,18.83
2022-08-18T02:18:48.422Z,18.90
2022-08-18T02:21:34.050Z,18.95
2022-08-18T02:24:19.559Z,18.96
2022-08-18T02:27:05.844Z,18.87
2022-08-18T02:29:50.825Z,18.75
2022-08-18T02:32:36.056Z,18.73
2022-08-18T02:35:21.645Z,18.62
2022-08-18T02:38:07.339Z,18.58
2022-08-18T02:41:00.327Z,18.60
2022-08-18T02:43:45.391Z,18.65
2022-08-18T02:46:31.257Z,18.63
2022-08-18T02:49:16.405Z,18.66
2022-08-18T02:52:01.381Z,18.62
2022-08-18T02:54:46.142Z,18.62
2022-08-18T02:57:31.287Z,18.62
2022-08-18T03:00:18.968Z,18.53
2022-08-18T03:03:04.433Z,18.50
2022-08-18T03:05:49.363Z,18.45
2022-08-18T03:08:34.227Z,18.40
2022-08-18T03:11:24.611Z,18.34
2022-08-18T03:14:11.255Z,18.40
2022-08-18T03:16:57.228Z,18.35
2022-08-18T03:19:42.463Z,18.41
2022-08-18T03:22:31.072Z,18.31
2022-08-18T03:25:17.301Z,18.25
2022-08-18T03:28:03.896Z,18.25
2022-08-18T03:30:49.161Z,18.22
2022-08-18T03:33:34.554Z,18.19
2022-08-18T03:36:22.329Z,18.05
2022-08-18T03:39:10.750Z,17.95
2022-08-18T03:41:59.919Z,17.94
2022-08-18T03:44:45.943Z,17.92
2022-08-18T03:47:31.317Z,17.94
2022-08-18T03:50:16.109Z,17.91
2022-08-18T03:53:01.079Z,17.91
2022-08-18T03:55:45.925Z,17.89
2022-08-18T03:58:30.885Z,17.94
2022-08-18T04:01:26.537Z,17.95
2022-08-18T04:04:15.595Z,17.99
2022-08-18T04:07:05.809Z,18.02
2022-08-18T04:09:50.525Z,18.04
2022-08-18T04:12:35.320Z,18.08
2022-08-18T04:15:20.251Z,18.14
2022-08-18T04:18:05.379Z,18.19
2022-08-18T04:20:59.132Z,18.22
2022-08-18T04:23:52.748Z,18.28
2022-08-18T04:26:44.197Z,18.30
2022-08-18T04:29:29.489Z,18.42
2022-08-18T04:32:14.268Z,18.49
2022-08-18T04:34:59.134Z,18.50
2022-08-18T04:37:48.075Z,18.54
2022-08-18T04:40:32.903Z,18.66
2022-08-18T04:43:17.962Z,18.73
2022-08-18T04:46:03.372Z,18.81
2022-08-18T04:48:48.597Z,18.90
2022-08-18T04:52:34.401Z,18.93
2022-08-18T04:54:40.363Z,18.92
2022-08-18T04:57:25.448Z,18.93
2022-08-18T05:00:10.956Z,18.85
2022-08-18T05:02:57.169Z,18.86
2022-08-18T05:05:42.366Z,18.90
2022-08-18T05:08:27.295Z,18.86
2022-08-18T05:11:12.274Z,18.79
2022-08-18T05:13:57.698Z,18.84
2022-08-18T05:16:48.894Z,18.71
2022-08-18T05:19:34.710Z,18.65
2022-08-18T05:22:22.337Z,18.48
2022-08-18T05:25:13.926Z,18.48
2022-08-18T05:27:59.065Z,18.51
2022-08-18T05:30:43.939Z,18.63
2022-08-18T05:33:28.832Z,18.66
2022-08-18T05:36:42.037Z,18.68
2022-08-18T05:39:51.057Z,18.81
2022-08-18T05:42:38.857Z,18.91
2022-08-18T05:45:24.534Z,18.94
2022-08-18T05:48:09.401Z,18.95
2022-08-18T05:50:56.071Z,18.95
2022-08-18T05:53:41.811Z,18.91
2022-08-18T05:56:34.379Z,18.98
2022-08-18T05:59:24.956Z,18.96
2022-08-18T06:02:21.851Z,18.86
2022-08-18T06:05:10.712Z,18.78
2022-08-18T06:08:12.120Z,18.69
2022-08-18T06:10:57.272Z,18.67
2022-08-18T06:13:43.352Z,18.79
2022-08-18T06:16:37.824Z,18.68
2022-08-18T06:19:32.822Z,18.73
2022-08-18T06:22:25.077Z,18.94
2022-08-18T06:25:25.424Z,19.08
2022-08-18T06:28:15.781Z,19.19
2022-08-18T06:31:15.869Z,19.02
2022-08-18T06:34:09.841Z,19.01
2022-08-18T06:37:09.011Z,19.03
2022-08-18T06:39:53.961Z,19.11
2022-08-18T06:42:40.614Z,19.03
2022-08-18T06:45:33.905Z,19.17
2022-08-18T06:48:54.174Z,19.12
2022-08-18T06:51:40.911Z,19.12
2022-08-18T06:54:28.784Z,19.33
2022-08-18T06:57:33.979Z,19.38
2022-08-18T07:00:19.005Z,19.31
2022-08-18T07:03:03.792Z,19.32
2022-08-18T07:06:04.402Z,19.38
2022-08-18T07:08:54.494Z,19.49
2022-08-18T07:11:39.245Z,19.59
2022-08-18T07:14:24.518Z,19.49
2022-08-18T07:17:19.637Z,19.48
2022-08-18T07:20:06.978Z,19.57
2022-08-18T07:23:00.138Z,19.67
2022-08-18T07:25:48.342Z,19.64
2022-08-18T07:28:43.227Z,19.63
2022-08-18T07:31:34.235Z,19.79
2022-08-18T07:34:26.295Z,19.85
2022-08-18T07:37:28.431Z,20.03
2022-08-18T07:40:19.867Z,19.83
2022-08-18T07:43:16.574Z,19.52
2022-08-18T07:46:16.078Z,19.66
2022-08-18T07:49:05.403Z,19.74
2022-08-18T07:52:00.256Z,19.67
2022-08-18T07:55:30.798Z,19.44
2022-08-18T07:58:34.652Z,19.25
2022-08-18T08:01:38.645Z,19.17
2022-08-18T08:04:46.339Z,19.21
2022-08-18T08:07:56.434Z,19.35
2022-08-18T08:10:56.334Z,19.22
2022-08-18T08:13:56.231Z,19.31
2022-08-18T08:17:03.013Z,19.49
2022-08-18T08:20:18.518Z,19.46
2022-08-18T08:23:18.585Z,19.68
2022-08-18T08:26:50.807Z,19.95
2022-08-18T08:30:09.498Z,20.14
2022-08-18T08:33:28.158Z,20.38
2022-08-18T08:36:24.913Z,20.65
2022-08-18T08:39:31.951Z,20.87
2022-08-18T08:42:31.430Z,21.02
2022-08-18T08:45:28.461Z,21.08
2022-08-18T08:48:23.483Z,21.04
2022-08-18T08:51:11.486Z,21.05
2022-08-18T08:54:09.250Z,21.15
2022-08-18T08:56:59.765Z,21.22
2022-08-18T08:59:48.621Z,21.34
2022-08-18T09:03:13.292Z,21.52
2022-08-18T09:06:35.768Z,21.43
2022-08-18T09:09:29.633Z,21.66
2022-08-18T09:12:44.911Z,21.81
2022-08-18T09:15:35.865Z,21.84
2022-08-18T09:18:59.394Z,21.90
2022-08-18T09:21:56.935Z,21.94
2022-08-18T09:24:48.174Z,21.82
2022-08-18T09:27:53.932Z,21.87
2022-08-18T09:30:47.600Z,21.79
2022-08-18T09:33:38.864Z,21.71
2022-08-18T09:36:42.201Z,21.75
2022-08-18T09:39:38.798Z,21.87
2022-08-18T09:43:15.971Z,21.90
2022-08-18T09:46:07.980Z,22.01
2022-08-18T09:49:23.213Z,22.04
2022-08-18T09:52:21.042Z,22.25
2022-08-18T09:55:18.476Z,22.28
2022-08-18T09:58:22.946Z,22.42
2022-08-18T10:01:32.416Z,22.45
2022-08-18T10:04:29.324Z,22.34
2022-08-18T10:07:17.782Z,22.40
2022-08-18T10:11:02.211Z,22.48
2022-08-18T10:13:38.770Z,22.58
2022-08-18T10:16:51.129Z,22.51
2022-08-18T10:19:59.605Z,22.40
2022-08-18T10:22:49.419Z,22.45
2022-08-18T10:25:40.938Z,22.23
2022-08-18T10:28:56.040Z,22.12
2022-08-18T10:31:58.614Z,22.24
2022-08-18T10:34:52.890Z,22.30
2022-08-18T10:37:49.136Z,22.35
2022-08-18T10:40:37.695Z,22.46
2022-08-18T10:43:46.171Z,22.50
2022-08-18T10:46:46.873Z,22.64
2022-08-18T10:49:32.848Z,22.62
2022-08-18T10:52:51.350Z,22.41
2022-08-18T10:55:48.361Z,22.52
2022-08-18T10:58:53.955Z,22.60
2022-08-18T11:01:48.003Z,22.50
2022-08-18T11:04:58.612Z,22.57
2022-08-18T11:11:27.179Z,22.74
2022-08-18T11:14:18.536Z,22.95
2022-08-18T11:17:22.019Z,23.15
2022-08-18T11:20:13.542Z,23.16
2022-08-18T11:23:01.969Z,23.33
2022-08-18T11:25:48.450Z,23.29
2022-08-18T11:28:37.383Z,23.36
2022-08-18T11:31:26.659Z,23.39
2022-08-18T11:34:19.927Z,23.23
2022-08-18T11:37:09.782Z,23.16
2022-08-18T11:39:58.336Z,22.89
2022-08-18T11:42:55.035Z,22.92
2022-08-18T11:45:46.497Z,23.16
2022-08-18T11:48:52.305Z,23.42
2022-08-18T11:51:55.423Z,23.25
2022-08-18T11:57:51.508Z,23.63
2022-08-18T12:00:54.838Z,23.68
2022-08-18T12:03:46.757Z,23.99
2022-08-18T12:06:32.667Z,24.42
2022-08-18T12:10:17.300Z,24.81
2022-08-18T12:12:47.355Z,25.52
2022-08-18T12:15:44.897Z,26.02
2022-08-18T12:18:32.707Z,26.22
2022-08-18T12:21:17.616Z,26.11
2022-08-18T12:24:03.331Z,26.23
2022-08-18T12:26:49.721Z,26.46
2022-08-18T12:29:43.722Z,26.37
2022-08-18T12:32:49.152Z,26.37
2022-08-18T12:35:36.196Z,26.50
2022-08-18T12:38:22.534Z,26.37
2022-08-18T12:41:07.409Z,26.52
2022-08-18T12:43:58.998Z,26.47
2022-08-18T12:46:44.818Z,26.57
2022-08-18T12:49:30.147Z,27.16
2022-08-18T12:52:17.281Z,27.56
2022-08-18T12:55:03.237Z,27.86
2022-08-18T12:57:53.511Z,27.43
2022-08-18T13:00:39.287Z,26.96
2022-08-18T13:03:24.546Z,27.02
2022-08-18T13:06:13.726Z,26.96
2022-08-18T13:09:01.981Z,26.83
2022-08-18T13:11:52.006Z,26.41
2022-08-18T13:14:38.543Z,26.60
2022-08-18T13:17:32.113Z,26.54
2022-08-18T13:20:19.159Z,26.30
2022-08-18T13:23:06.216Z,26.09
2022-08-18T13:25:59.435Z,25.82
2022-08-18T13:28:51.558Z,25.75
2022-08-18T13:31:56.012Z,25.32
2022-08-18T13:34:42.965Z,25.59
2022-08-18T13:37:28.827Z,25.92
2022-08-18T13:40:14.230Z,25.99
2022-08-18T13:43:04.556Z,26.04
2022-08-18T13:45:56.312Z,26.11
2022-08-18T13:48:42.088Z,26.00
2022-08-18T13:51:29.438Z,25.90
2022-08-18T13:54:31.160Z,26.09
2022-08-18T13:57:16.687Z,26.01
2022-08-18T14:00:02.444Z,25.96
2022-08-18T14:02:50.945Z,25.82
2022-08-18T14:05:51.747Z,25.52
2022-08-18T14:08:37.382Z,25.77
2022-08-18T14:11:32.892Z,25.74
2022-08-18T14:14:18.938Z,25.67
2022-08-18T14:17:04.181Z,25.44
2022-08-18T14:19:53.158Z,25.53
2022-08-18T14:22:41.568Z,25.86
2022-08-18T14:25:28.062Z,26.19
2022-08-18T14:28:13.883Z,26.17
2022-08-18T14:31:03.890Z,25.90
2022-08-18T14:33:54.158Z,26.08
2022-08-18T14:36:40.679Z,26.23
2022-08-18T14:39:29.187Z,26.07
2022-08-18T14:42:16.466Z,26.24
2022-08-18T14:45:17.033Z,26.56
2022-08-18T14:48:11.193Z,26.81
2022-08-18T14:50:57.813Z,26.98
2022-08-18T14:53:42.994Z,26.67
2022-08-18T14:56:29.555Z,26.81
2022-08-18T14:59:14.860Z,26.56
2022-08-18T15:02:06.166Z,26.59
2022-08-18T15:04:57.828Z,26.60
2022-08-18T15:07:43.279Z,26.26
2022-08-18T15:10:31.246Z,26.19
2022-08-18T15:13:16.809Z,26.30
2022-08-18T15:16:03.112Z,26.10
2022-08-18T15:18:48.119Z,26.07
2022-08-18T15:21:38.486Z,25.98
2022-08-18T15:24:23.949Z,25.87
2022-08-18T15:27:10.502Z,26.03
2022-08-18T15:30:09.350Z,25.75
2022-08-18T15:32:56.494Z,25.90
2022-08-18T15:35:44.430Z,25.63
2022-08-18T15:38:30.956Z,25.92
2022-08-18T15:41:31.221Z,26.00
2022-08-18T15:44:19.655Z,26.04
2022-08-18T15:47:05.902Z,26.03
2022-08-18T15:49:54.809Z,25.96
2022-08-18T15:52:49.311Z,26.09
2022-08-18T15:55:37.700Z,25.78
2022-08-18T15:58:26.933Z,25.93
2022-08-18T16:01:29.989Z,26.07
2022-08-18T16:04:16.128Z,26.08
2022-08-18T16:07:02.139Z,25.95
2022-08-18T16:09:47.305Z,26.04
2022-08-18T16:12:33.026Z,26.13
2022-08-18T16:15:22.418Z,26.11
2022-08-18T16:18:08.775Z,26.13
2022-08-18T16:20:56.685Z,26.11
2022-08-18T16:23:45.458Z,26.09
2022-08-18T16:26:30.435Z,25.84
2022-08-18T16:29:15.432Z,25.87
2022-08-18T16:32:00.371Z,25.77
2022-08-18T16:34:48.602Z,25.65
2022-08-18T16:37:33.625Z,25.56
2022-08-18T16:40:19.905Z,25.44
2022-08-18T16:43:05.329Z,25.25
2022-08-18T16:45:50.590Z,25.24
2022-08-18T16:48:35.978Z,25.36
2022-08-18T16:51:23.583Z,25.39
2022-08-18T16:54:08.837Z,25.38
2022-08-18T16:56:53.707Z,25.12
2022-08-18T16:59:38.916Z,25.28
2022-08-18T17:02:24.236Z,25.15
2022-08-18T17:05:10.041Z,25.20
2022-08-18T17:07:55.057Z,25.12
2022-08-18T17:10:41.524Z,25.24
2022-08-18T17:13:26.802Z,25.18
2022-08-18T17:16:12.968Z,25.22
2022-08-18T17:18:58.185Z,25.23
2022-08-18T17:21:43.406Z,25.16
2022-08-18T17:24:31.484Z,25.16
2022-08-18T17:27:27.807Z,25.12
2022-08-18T17:30:22.842Z,25.15
2022-08-18T17:33:18.471Z,25.04
2022-08-18T17:36:06.627Z,25.12
2022-08-18T17:38:59.296Z,25.02
2022-08-18T17:41:44.007Z,25.05
2022-08-18T17:44:31.463Z,24.97
2022-08-18T17:47:21.712Z,24.96
2022-08-18T17:50:27.802Z,24.96
2022-08-18T17:53:13.948Z,24.97
2022-08-18T17:56:09.586Z,24.92
2022-08-18T17:59:46.103Z,24.60
2022-08-18T18:02:30.670Z,24.79
2022-08-18T18:05:19.513Z,24.71
2022-08-18T18:08:05.761Z,24.71
2022-08-18T18:11:06.332Z,24.37
2022-08-18T18:13:51.521Z,24.44
2022-08-18T18:16:36.900Z,24.50
2022-08-18T18:19:24.426Z,24.46
2022-08-18T18:22:21.527Z,24.37
2022-08-18T18:25:08.919Z,24.30
2022-08-18T18:27:54.526Z,24.12
2022-08-18T18:30:41.293Z,24.02
2022-08-18T18:33:30.159Z,23.96
2022-08-18T18:36:36.680Z,23.57
2022-08-18T18:39:34.006Z,23.61
2022-08-18T18:42:25.966Z,23.23
2022-08-18T18:45:25.185Z,23.30
2022-08-18T18:48:48.300Z,23.21
2022-08-18T18:51:38.287Z,23.16
2022-08-18T18:54:35.281Z,23.08
2022-08-18T18:57:36.248Z,22.99
2022-08-18T19:00:28.926Z,22.93
2022-08-18T19:03:24.430Z,22.88
2022-08-18T19:06:35.762Z,22.76
2022-08-18T19:09:27.419Z,22.66
2022-08-18T19:12:24.396Z,22.55
2022-08-18T19:15:13.721Z,22.47
2022-08-18T19:18:15.292Z,22.21
2022-08-18T19:22:05.974Z,22.27
2022-08-18T19:24:44.912Z,22.34
2022-08-18T19:27:38.010Z,22.24
2022-08-18T19:30:23.566Z,22.23
2022-08-18T19:33:24.728Z,22.19
2022-08-18T19:36:37.717Z,22.09
2022-08-18T19:39:48.856Z,22.09
2022-08-18T19:42:43.917Z,22.04
2022-08-18T19:45:51.440Z,22.00
2022-08-18T19:48:48.419Z,21.97
2022-08-18T19:51:39.737Z,21.92
2022-08-18T19:54:33.195Z,21.86
2022-08-18T19:57:18.639Z,21.75
2022-08-18T20:00:21.264Z,21.68
2022-08-18T20:03:19.526Z,21.61
2022-08-18T20:06:35.097Z,21.57
2022-08-18T20:09:37.544Z,21.54
2022-08-18T20:12:25.306Z,21.50
2022-08-18T20:15:13.728Z,21.48
2022-08-18T20:18:20.417Z,21.37
2022-08-18T20:21:31.264Z,21.29
2022-08-18T20:24:36.349Z,21.28
2022-08-18T20:27:35.065Z,21.33
2022-08-18T20:30:23.971Z,21.37
2022-08-18T20:33:25.794Z,21.33
2022-08-18T20:36:28.404Z,21.28
2022-08-18T20:39:40.834Z,21.12
2022-08-18T20:42:35.254Z,20.97
2022-08-18T20:45:28.701Z,20.91
2022-08-18T20:48:43.298Z,20.88
2022-08-18T20:51:31.379Z,20.70
2022-08-18T20:54:21.377Z,20.69
2022-08-18T20:57:11.711Z,20.70
2022-08-18T21:00:08.857Z,20.65
2022-08-18T21:02:59.267Z,20.70
2022-08-18T21:05:45.640Z,20.69
2022-08-18T21:08:34.598Z,20.70
2022-08-18T21:11:30.881Z,20.72
2022-08-18T21:14:27.132Z,20.75
2022-08-18T21:17:15.267Z,20.80
2022-08-18T21:20:06.672Z,20.75
2022-08-18T21:23:11.616Z,20.77
2022-08-18T21:26:15.244Z,20.75
2022-08-18T21:29:08.552Z,20.66
2022-08-18T21:32:10.028Z,20.63
2022-08-18T21:34:55.202Z,20.60
2022-08-18T21:37:41.429Z,20.60
2022-08-18T21:40:47.915Z,20.59
2022-08-18T21:43:40.703Z,20.56
2022-08-18T21:46:30.498Z,20.48
2022-08-18T21:49:25.304Z,20.51
2022-08-18T21:52:10.708Z,20.48
2022-08-18T21:55:06.382Z,20.51
2022-08-18T21:58:17.864Z,20.45
2022-08-18T22:01:36.933Z,20.46
2022-08-18T22:04:47.636Z,20.43
2022-08-18T22:07:35.054Z,20.44
2022-08-18T22:10:30.483Z,20.46
2022-08-18T22:13:25.630Z,20.47
2022-08-18T22:16:32.434Z,20.43
2022-08-18T22:19:20.173Z,20.27
2022-08-18T22:22:06.042Z,20.25
2022-08-18T22:24:58.195Z,20.27
2022-08-18T22:27:49.342Z,20.33
2022-08-18T22:30:34.746Z,20.27
2022-08-18T22:33:20.031Z,20.27
2022-08-18T22:36:05.068Z,20.24
2022-08-18T22:38:50.702Z,20.23
2022-08-18T22:41:36.921Z,20.20
2022-08-18T22:44:22.314Z,20.18
2022-08-18T22:47:08.731Z,20.04
2022-08-18T22:49:53.954Z,19.84
2022-08-18T22:52:43.919Z,19.76
2022-08-18T22:55:29.048Z,19.81
2022-08-18T22:58:17.575Z,19.84
2022-08-18T23:01:08.060Z,19.87
2022-08-18T23:03:53.159Z,19.81
2022-08-18T23:06:38.104Z,19.70
2022-08-18T23:09:26.706Z,19.67
2022-08-18T23:12:12.811Z,19.64
2022-08-18T23:14:58.173Z,19.59
2022-08-18T23:17:43.598Z,19.58
2022-08-18T23:20:28.446Z,19.58
2022-08-18T23:23:15.617Z,19.54
2022-08-18T23:26:00.692Z,19.53
2022-08-18T23:28:46.080Z,19.51
2022-08-18T23:31:32.606Z,19.51
2022-08-18T23:34:19.742Z,19.46
2022-08-18T23:37:05.354Z,19.44
2022-08-18T23:39:50.743Z,19.27
2022-08-18T23:42:36.025Z,19.25
2022-08-18T23:45:21.047Z,19.27
2022-08-18T23:48:06.936Z,19.30
2022-08-18T23:50:51.937Z,19.24
2022-08-18T23:53:36.817Z,19.19
2022-08-18T23:56:21.723Z,19.16
2022-08-18T23:59:07.862Z,19.16
